sensor_id;sensor_type;location;lat;lon;timestamp;pressure;altitude;pressure_sealevel;temperature;humidity
7524;BME280;3803;51.666;7.630;2023-02-04T00:00:19;102454.16;;;8.83;57.15
7524;BME280;3803;51.666;7.630;2023-02-04T00:00:40;102452.03;;;8.77;57.00
7524;BME280;3803;51.666;7.630;2023-02-04T00:01:01;102456.38;;;8.76;57.43
7524;BME280;3803;51.666;7.630;2023-02-04T00:01:21;102457.63;;;8.83;56.99
7524;BME280;3803;51.666;7.630;2023-02-04T00:01:42;102457.53;;;8.82;56.94
7524;BME280;3803;51.666;7.630;2023-02-04T00:02:02;102454.03;;;8.81;56.99
7524;BME280;3803;51.666;7.630;2023-02-04T00:02:23;102446.50;;;8.86;57.05
7524;BME280;3803;51.666;7.630;2023-02-04T00:02:44;102457.91;;;8.88;56.98
7524;BME280;3803;51.666;7.630;2023-02-04T00:03:05;102458.91;;;8.90;56.85
7524;BME280;3803;51.666;7.630;2023-02-04T00:03:25;102470.13;;;8.89;56.69
7524;BME280;3803;51.666;7.630;2023-02-04T00:03:46;102457.81;;;8.86;56.67
7524;BME280;3803;51.666;7.630;2023-02-04T00:04:11;102478.50;;;8.98;57.02
7524;BME280;3803;51.666;7.630;2023-02-04T00:04:32;102459.13;;;8.93;56.70
7524;BME280;3803;51.666;7.630;2023-02-04T00:04:53;102459.81;;;8.90;56.74
7524;BME280;3803;51.666;7.630;2023-02-04T00:05:15;102465.84;;;8.89;56.74
7524;BME280;3803;51.666;7.630;2023-02-04T00:05:36;102456.41;;;8.91;56.39
7524;BME280;3803;51.666;7.630;2023-02-04T00:05:57;102464.31;;;8.93;56.69
7524;BME280;3803;51.666;7.630;2023-02-04T00:06:17;102456.75;;;8.83;56.84
7524;BME280;3803;51.666;7.630;2023-02-04T00:06:38;102463.94;;;8.87;56.37
7524;BME280;3803;51.666;7.630;2023-02-04T00:06:59;102468.97;;;8.84;56.65
7524;BME280;3803;51.666;7.630;2023-02-04T00:07:19;102468.34;;;8.88;57.02
7524;BME280;3803;51.666;7.630;2023-02-04T00:07:40;102450.44;;;8.79;56.88
7524;BME280;3803;51.666;7.630;2023-02-04T00:08:00;102463.34;;;8.91;56.97
7524;BME280;3803;51.666;7.630;2023-02-04T00:08:21;102450.63;;;8.82;56.53
7524;BME280;3803;51.666;7.630;2023-02-04T00:08:42;102452.44;;;8.83;56.68
7524;BME280;3803;51.666;7.630;2023-02-04T00:09:03;102455.16;;;8.71;56.73
7524;BME280;3803;51.666;7.630;2023-02-04T00:09:24;102457.25;;;8.77;56.89
7524;BME280;3803;51.666;7.630;2023-02-04T00:09:44;102446.13;;;8.80;56.83
7524;BME280;3803;51.666;7.630;2023-02-04T00:10:09;102447.91;;;8.81;56.51
7524;BME280;3803;51.666;7.630;2023-02-04T00:10:30;102468.22;;;8.86;56.40
7524;BME280;3803;51.666;7.630;2023-02-04T00:10:50;102446.81;;;8.77;56.42
7524;BME280;3803;51.666;7.630;2023-02-04T00:11:17;102456.53;;;8.80;56.30
7524;BME280;3803;51.666;7.630;2023-02-04T00:11:38;102458.97;;;8.76;56.66
7524;BME280;3803;51.666;7.630;2023-02-04T00:11:59;102464.38;;;8.66;56.57
7524;BME280;3803;51.666;7.630;2023-02-04T00:12:20;102460.47;;;8.59;57.06
7524;BME280;3803;51.666;7.630;2023-02-04T00:12:41;102466.19;;;8.67;56.89
7524;BME280;3803;51.666;7.630;2023-02-04T00:13:02;102454.56;;;8.48;57.61
7524;BME280;3803;51.666;7.630;2023-02-04T00:13:23;102466.38;;;8.57;57.30
7524;BME280;3803;51.666;7.630;2023-02-04T00:13:43;102454.16;;;8.56;57.26
7524;BME280;3803;51.666;7.630;2023-02-04T00:14:04;102459.78;;;8.62;57.07
7524;BME280;3803;51.666;7.630;2023-02-04T00:14:24;102456.75;;;8.56;57.09
7524;BME280;3803;51.666;7.630;2023-02-04T00:14:45;102461.97;;;8.56;57.37
7524;BME280;3803;51.666;7.630;2023-02-04T00:15:07;102467.16;;;8.56;57.45
7524;BME280;3803;51.666;7.630;2023-02-04T00:15:28;102469.78;;;8.56;56.92
7524;BME280;3803;51.666;7.630;2023-02-04T00:15:48;102454.78;;;8.52;57.16
7524;BME280;3803;51.666;7.630;2023-02-04T00:16:09;102470.41;;;8.52;56.90
7524;BME280;3803;51.666;7.630;2023-02-04T00:16:29;102470.00;;;8.45;57.37
7524;BME280;3803;51.666;7.630;2023-02-04T00:16:50;102475.50;;;8.36;57.63
7524;BME280;3803;51.666;7.630;2023-02-04T00:17:10;102471.03;;;8.20;57.79
7524;BME280;3803;51.666;7.630;2023-02-04T00:17:32;102471.00;;;8.07;58.20
7524;BME280;3803;51.666;7.630;2023-02-04T00:17:53;102463.78;;;8.03;58.48
7524;BME280;3803;51.666;7.630;2023-02-04T00:18:14;102473.50;;;8.05;58.24
7524;BME280;3803;51.666;7.630;2023-02-04T00:18:34;102472.91;;;7.96;58.46
7524;BME280;3803;51.666;7.630;2023-02-04T00:18:55;102474.81;;;8.12;58.39
7524;BME280;3803;51.666;7.630;2023-02-04T00:19:16;102478.59;;;8.17;58.37
7524;BME280;3803;51.666;7.630;2023-02-04T00:19:36;102475.81;;;8.28;58.45
7524;BME280;3803;51.666;7.630;2023-02-04T00:19:57;102485.91;;;8.36;58.07
7524;BME280;3803;51.666;7.630;2023-02-04T00:20:18;102476.19;;;8.34;57.98
7524;BME280;3803;51.666;7.630;2023-02-04T00:20:39;102488.00;;;8.42;57.87
7524;BME280;3803;51.666;7.630;2023-02-04T00:21:00;102486.00;;;8.38;58.00
7524;BME280;3803;51.666;7.630;2023-02-04T00:21:21;102472.78;;;8.35;57.61
7524;BME280;3803;51.666;7.630;2023-02-04T00:21:42;102468.50;;;8.35;57.96
7524;BME280;3803;51.666;7.630;2023-02-04T00:22:03;102472.78;;;8.35;57.85
7524;BME280;3803;51.666;7.630;2023-02-04T00:22:23;102478.78;;;8.34;57.86
7524;BME280;3803;51.666;7.630;2023-02-04T00:22:45;102487.41;;;8.46;57.77
7524;BME280;3803;51.666;7.630;2023-02-04T00:23:06;102473.00;;;8.38;57.82
7524;BME280;3803;51.666;7.630;2023-02-04T00:23:27;102488.00;;;8.42;57.49
7524;BME280;3803;51.666;7.630;2023-02-04T00:23:47;102489.09;;;8.46;57.95
7524;BME280;3803;51.666;7.630;2023-02-04T00:24:10;102482.09;;;8.45;57.52
7524;BME280;3803;51.666;7.630;2023-02-04T00:24:30;102481.81;;;8.40;57.63
7524;BME280;3803;51.666;7.630;2023-02-04T00:24:51;102486.13;;;8.40;57.80
7524;BME280;3803;51.666;7.630;2023-02-04T00:25:12;102490.00;;;8.46;57.52
7524;BME280;3803;51.666;7.630;2023-02-04T00:25:32;102478.22;;;8.38;57.66
7524;BME280;3803;51.666;7.630;2023-02-04T00:25:53;102485.50;;;8.30;57.95
7524;BME280;3803;51.666;7.630;2023-02-04T00:26:13;102495.63;;;8.39;57.97
7524;BME280;3803;51.666;7.630;2023-02-04T00:26:34;102475.19;;;8.32;57.98
7524;BME280;3803;51.666;7.630;2023-02-04T00:26:55;102486.31;;;8.29;57.84
7524;BME280;3803;51.666;7.630;2023-02-04T00:27:16;102497.00;;;8.34;57.78
7524;BME280;3803;51.666;7.630;2023-02-04T00:27:37;102489.59;;;8.27;58.09
7524;BME280;3803;51.666;7.630;2023-02-04T00:27:58;102491.63;;;8.31;58.23
7524;BME280;3803;51.666;7.630;2023-02-04T00:28:18;102497.81;;;8.33;58.12
7524;BME280;3803;51.666;7.630;2023-02-04T00:28:39;102483.28;;;8.23;58.50
7524;BME280;3803;51.666;7.630;2023-02-04T00:28:59;102480.91;;;8.26;58.46
7524;BME280;3803;51.666;7.630;2023-02-04T00:29:20;102484.41;;;8.27;58.15
7524;BME280;3803;51.666;7.630;2023-02-04T00:29:41;102488.41;;;8.35;58.33
7524;BME280;3803;51.666;7.630;2023-02-04T00:30:06;102494.91;;;8.42;57.90
7524;BME280;3803;51.666;7.630;2023-02-04T00:31:34;102486.00;;;8.38;58.18
7524;BME280;3803;51.666;7.630;2023-02-04T00:31:55;102490.59;;;8.42;58.19
7524;BME280;3803;51.666;7.630;2023-02-04T00:32:16;102495.03;;;8.43;58.02
7524;BME280;3803;51.666;7.630;2023-02-04T00:32:36;102501.00;;;8.42;58.01
7524;BME280;3803;51.666;7.630;2023-02-04T00:32:57;102494.00;;;8.41;57.63
7524;BME280;3803;51.666;7.630;2023-02-04T00:33:18;102491.31;;;8.40;57.87
7524;BME280;3803;51.666;7.630;2023-02-04T00:33:39;102494.00;;;8.41;57.87
7524;BME280;3803;51.666;7.630;2023-02-04T00:34:03;102508.22;;;8.46;58.00
7524;BME280;3803;51.666;7.630;2023-02-04T00:34:23;102495.09;;;8.45;58.01
7524;BME280;3803;51.666;7.630;2023-02-04T00:34:44;102496.81;;;8.44;58.07
7524;BME280;3803;51.666;7.630;2023-02-04T00:35:05;102488.31;;;8.33;57.87
7524;BME280;3803;51.666;7.630;2023-02-04T00:35:26;102500.94;;;8.41;57.80
7524;BME280;3803;51.666;7.630;2023-02-04T00:35:47;102498.41;;;8.42;58.11
7524;BME280;3803;51.666;7.630;2023-02-04T00:36:08;102490.00;;;8.33;58.28
7524;BME280;3803;51.666;7.630;2023-02-04T00:36:29;102494.19;;;8.17;58.43
7524;BME280;3803;51.666;7.630;2023-02-04T00:36:49;102500.59;;;8.09;58.86
7524;BME280;3803;51.666;7.630;2023-02-04T00:37:10;102489.81;;;8.16;58.82
7524;BME280;3803;51.666;7.630;2023-02-04T00:37:31;102501.63;;;8.25;58.62
7524;BME280;3803;51.666;7.630;2023-02-04T00:37:52;102489.59;;;8.27;58.41
7524;BME280;3803;51.666;7.630;2023-02-04T00:38:13;102477.22;;;8.22;58.51
7524;BME280;3803;51.666;7.630;2023-02-04T00:38:34;102486.41;;;8.31;58.22
7524;BME280;3803;51.666;7.630;2023-02-04T00:38:55;102499.59;;;8.34;58.03
7524;BME280;3803;51.666;7.630;2023-02-04T00:39:15;102489.69;;;8.15;58.18
7524;BME280;3803;51.666;7.630;2023-02-04T00:39:36;102498.31;;;8.27;58.43
7524;BME280;3803;51.666;7.630;2023-02-04T00:39:56;102497.84;;;8.19;58.37
7524;BME280;3803;51.666;7.630;2023-02-04T00:40:17;102510.63;;;8.30;58.48
7524;BME280;3803;51.666;7.630;2023-02-04T00:40:38;102509.03;;;8.32;58.42
7524;BME280;3803;51.666;7.630;2023-02-04T00:40:58;102498.53;;;8.17;58.02
7524;BME280;3803;51.666;7.630;2023-02-04T00:41:19;102496.59;;;8.01;58.62
7524;BME280;3803;51.666;7.630;2023-02-04T00:41:40;102506.00;;;7.99;59.26
7524;BME280;3803;51.666;7.630;2023-02-04T00:42:01;102498.16;;;7.85;59.22
7524;BME280;3803;51.666;7.630;2023-02-04T00:42:21;102495.50;;;7.84;59.31
7524;BME280;3803;51.666;7.630;2023-02-04T00:42:42;102491.56;;;7.77;59.74
7524;BME280;3803;51.666;7.630;2023-02-04T00:43:03;102512.56;;;7.80;59.76
7524;BME280;3803;51.666;7.630;2023-02-04T00:43:23;102494.34;;;7.66;59.89
7524;BME280;3803;51.666;7.630;2023-02-04T00:43:44;102493.84;;;7.72;60.02
7524;BME280;3803;51.666;7.630;2023-02-04T00:44:04;102500.84;;;7.73;60.15
7524;BME280;3803;51.666;7.630;2023-02-04T00:44:25;102499.66;;;7.81;60.42
7524;BME280;3803;51.666;7.630;2023-02-04T00:44:45;102494.28;;;7.78;60.05
7524;BME280;3803;51.666;7.630;2023-02-04T00:45:07;102498.78;;;7.81;60.19
7524;BME280;3803;51.666;7.630;2023-02-04T00:45:28;102497.88;;;7.80;60.10
7524;BME280;3803;51.666;7.630;2023-02-04T00:45:48;102502.50;;;7.85;60.14
7524;BME280;3803;51.666;7.630;2023-02-04T00:46:09;102491.56;;;7.77;60.08
7524;BME280;3803;51.666;7.630;2023-02-04T00:46:30;102480.06;;;7.73;60.00
7524;BME280;3803;51.666;7.630;2023-02-04T00:46:51;102500.78;;;7.85;60.70
7524;BME280;3803;51.666;7.630;2023-02-04T00:47:11;102484.19;;;7.83;59.90
7524;BME280;3803;51.666;7.630;2023-02-04T00:47:32;102483.38;;;7.84;59.97
7524;BME280;3803;51.666;7.630;2023-02-04T00:47:53;102492.16;;;7.86;60.03
7524;BME280;3803;51.666;7.630;2023-02-04T00:48:14;102496.97;;;7.93;60.30
7524;BME280;3803;51.666;7.630;2023-02-04T00:48:34;102495.06;;;7.91;59.97
7524;BME280;3803;51.666;7.630;2023-02-04T00:48:55;102502.00;;;7.90;59.73
7524;BME280;3803;51.666;7.630;2023-02-04T00:49:16;102491.59;;;7.90;59.79
7524;BME280;3803;51.666;7.630;2023-02-04T00:49:36;102495.00;;;7.89;59.87
7524;BME280;3803;51.666;7.630;2023-02-04T00:49:57;102501.38;;;7.94;59.98
7524;BME280;3803;51.666;7.630;2023-02-04T00:50:17;102499.41;;;7.90;60.05
7524;BME280;3803;51.666;7.630;2023-02-04T00:50:38;102498.91;;;7.96;59.79
7524;BME280;3803;51.666;7.630;2023-02-04T00:50:59;102493.97;;;7.87;59.96
7524;BME280;3803;51.666;7.630;2023-02-04T00:51:19;102493.50;;;7.93;60.00
7524;BME280;3803;51.666;7.630;2023-02-04T00:51:40;102501.38;;;7.94;60.12
7524;BME280;3803;51.666;7.630;2023-02-04T00:52:04;102498.50;;;8.03;59.97
7524;BME280;3803;51.666;7.630;2023-02-04T00:52:24;102514.53;;;8.09;59.87
7524;BME280;3803;51.666;7.630;2023-02-04T00:52:45;102504.50;;;8.02;59.97
7524;BME280;3803;51.666;7.630;2023-02-04T00:53:06;102507.59;;;8.10;59.93
7524;BME280;3803;51.666;7.630;2023-02-04T00:53:27;102513.91;;;8.14;59.68
7524;BME280;3803;51.666;7.630;2023-02-04T00:54:06;102509.31;;;8.09;59.74
7524;BME280;3803;51.666;7.630;2023-02-04T00:54:28;102512.41;;;8.04;59.53
7524;BME280;3803;51.666;7.630;2023-02-04T00:54:48;102510.59;;;8.03;60.08
7524;BME280;3803;51.666;7.630;2023-02-04T00:55:09;102506.41;;;8.05;59.84
7524;BME280;3803;51.666;7.630;2023-02-04T00:55:31;102513.81;;;7.99;60.00
7524;BME280;3803;51.666;7.630;2023-02-04T00:55:52;102504.28;;;7.99;59.89
7524;BME280;3803;51.666;7.630;2023-02-04T00:56:13;102521.22;;;8.06;60.21
7524;BME280;3803;51.666;7.630;2023-02-04T00:56:33;102514.59;;;8.11;60.01
7524;BME280;3803;51.666;7.630;2023-02-04T00:56:54;102515.41;;;8.10;60.01
7524;BME280;3803;51.666;7.630;2023-02-04T00:57:16;102511.69;;;8.06;59.62
7524;BME280;3803;51.666;7.630;2023-02-04T00:57:37;102511.81;;;8.08;59.96
7524;BME280;3803;51.666;7.630;2023-02-04T00:57:58;102524.91;;;8.09;59.83
7524;BME280;3803;51.666;7.630;2023-02-04T00:58:19;102512.81;;;8.10;59.84
7524;BME280;3803;51.666;7.630;2023-02-04T00:58:39;102508.31;;;8.07;59.75
7524;BME280;3803;51.666;7.630;2023-02-04T00:59:00;102513.53;;;8.07;59.96
7524;BME280;3803;51.666;7.630;2023-02-04T00:59:21;102515.91;;;8.04;60.09
7524;BME280;3803;51.666;7.630;2023-02-04T00:59:42;102515.50;;;8.12;59.74
7524;BME280;3803;51.666;7.630;2023-02-04T01:00:05;102515.31;;;8.08;59.75
7524;BME280;3803;51.666;7.630;2023-02-04T01:00:25;102529.03;;;8.19;59.62
7524;BME280;3803;51.666;7.630;2023-02-04T01:00:46;102519.00;;;8.26;59.37
7524;BME280;3803;51.666;7.630;2023-02-04T01:01:07;102513.41;;;8.33;59.05
7524;BME280;3803;51.666;7.630;2023-02-04T01:01:27;102521.81;;;8.42;59.16
7524;BME280;3803;51.666;7.630;2023-02-04T01:01:48;102515.03;;;8.44;58.71
7524;BME280;3803;51.666;7.630;2023-02-04T01:02:10;102517.03;;;8.48;58.71
7524;BME280;3803;51.666;7.630;2023-02-04T01:02:31;102520.63;;;8.50;58.91
7524;BME280;3803;51.666;7.630;2023-02-04T01:02:52;102513.63;;;8.49;58.68
7524;BME280;3803;51.666;7.630;2023-02-04T01:03:13;102522.81;;;8.58;58.62
7524;BME280;3803;51.666;7.630;2023-02-04T01:03:34;102514.31;;;8.47;58.64
7524;BME280;3803;51.666;7.630;2023-02-04T01:03:55;102526.03;;;8.54;58.64
7524;BME280;3803;51.666;7.630;2023-02-04T01:04:17;102511.63;;;8.45;58.88
7524;BME280;3803;51.666;7.630;2023-02-04T01:04:38;102511.63;;;8.45;58.72
7524;BME280;3803;51.666;7.630;2023-02-04T01:04:58;102527.44;;;8.48;58.55
7524;BME280;3803;51.666;7.630;2023-02-04T01:05:19;102523.72;;;8.45;58.64
7524;BME280;3803;51.666;7.630;2023-02-04T01:05:39;102523.31;;;8.52;58.60
7524;BME280;3803;51.666;7.630;2023-02-04T01:06:00;102516.84;;;8.45;58.74
7524;BME280;3803;51.666;7.630;2023-02-04T01:06:21;102527.84;;;8.55;58.84
7524;BME280;3803;51.666;7.630;2023-02-04T01:06:42;102515.63;;;8.54;58.48
7524;BME280;3803;51.666;7.630;2023-02-04T01:07:03;102525.41;;;8.58;58.64
7524;BME280;3803;51.666;7.630;2023-02-04T01:07:24;102523.63;;;8.57;58.54
7524;BME280;3803;51.666;7.630;2023-02-04T01:07:46;102521.53;;;8.51;58.31
7524;BME280;3803;51.666;7.630;2023-02-04T01:08:07;102521.13;;;8.58;58.47
7524;BME280;3803;51.666;7.630;2023-02-04T01:08:27;102537.06;;;8.63;58.32
7524;BME280;3803;51.666;7.630;2023-02-04T01:08:48;102528.03;;;8.58;58.47
7524;BME280;3803;51.666;7.630;2023-02-04T01:09:10;102528.81;;;8.57;58.54
7524;BME280;3803;51.666;7.630;2023-02-04T01:09:31;102527.44;;;8.48;58.77
7524;BME280;3803;51.666;7.630;2023-02-04T01:09:51;102538.84;;;8.37;58.77
7524;BME280;3803;51.666;7.630;2023-02-04T01:10:12;102528.03;;;8.44;59.16
7524;BME280;3803;51.666;7.630;2023-02-04T01:10:34;102528.84;;;8.30;59.15
7524;BME280;3803;51.666;7.630;2023-02-04T01:10:57;102529.41;;;8.26;59.42
7524;BME280;3803;51.666;7.630;2023-02-04T01:11:19;102531.94;;;8.24;59.46
7524;BME280;3803;51.666;7.630;2023-02-04T01:11:39;102522.81;;;8.17;59.39
7524;BME280;3803;51.666;7.630;2023-02-04T01:12:06;102536.84;;;8.19;59.08
7524;BME280;3803;51.666;7.630;2023-02-04T01:12:26;102541.44;;;8.23;59.39
7524;BME280;3803;51.666;7.630;2023-02-04T01:12:47;102549.34;;;8.25;59.71
7524;BME280;3803;51.666;7.630;2023-02-04T01:13:08;102542.03;;;8.19;59.41
7524;BME280;3803;51.666;7.630;2023-02-04T01:13:29;102528.72;;;8.15;59.79
7524;BME280;3803;51.666;7.630;2023-02-04T01:13:49;102539.53;;;8.21;59.63
7524;BME280;3803;51.666;7.630;2023-02-04T01:14:10;102537.44;;;8.15;59.53
7524;BME280;3803;51.666;7.630;2023-02-04T01:14:33;102536.13;;;8.22;59.69
7524;BME280;3803;51.666;7.630;2023-02-04T01:14:53;102532.22;;;8.15;59.82
7524;BME280;3803;51.666;7.630;2023-02-04T01:15:14;102542.44;;;8.26;59.56
7524;BME280;3803;51.666;7.630;2023-02-04T01:15:35;102527.44;;;8.21;59.80
7524;BME280;3803;51.666;7.630;2023-02-04T01:15:56;102533.06;;;8.28;60.04
7524;BME280;3803;51.666;7.630;2023-02-04T01:16:16;102528.25;;;8.20;59.80
7524;BME280;3803;51.666;7.630;2023-02-04T01:16:38;102536.22;;;8.23;59.92
7524;BME280;3803;51.666;7.630;2023-02-04T01:16:58;102544.22;;;8.27;59.84
7524;BME280;3803;51.666;7.630;2023-02-04T01:17:19;102542.72;;;8.30;59.72
7524;BME280;3803;51.666;7.630;2023-02-04T01:17:40;102540.06;;;8.29;59.70
7524;BME280;3803;51.666;7.630;2023-02-04T01:18:01;102539.44;;;8.33;59.85
7524;BME280;3803;51.666;7.630;2023-02-04T01:18:22;102533.06;;;8.28;59.87
7524;BME280;3803;51.666;7.630;2023-02-04T01:18:43;102543.84;;;8.34;59.52
7524;BME280;3803;51.666;7.630;2023-02-04T01:19:04;102541.25;;;8.20;59.73
7524;BME280;3803;51.666;7.630;2023-02-04T01:19:24;102536.22;;;8.23;59.77
7524;BME280;3803;51.666;7.630;2023-02-04T01:19:45;102535.25;;;8.21;59.90
7524;BME280;3803;51.666;7.630;2023-02-04T01:20:06;102547.25;;;8.33;59.57
7524;BME280;3803;51.666;7.630;2023-02-04T01:20:27;102542.03;;;8.33;59.62
7524;BME280;3803;51.666;7.630;2023-02-04T01:20:48;102546.25;;;8.31;59.90
7524;BME280;3803;51.666;7.630;2023-02-04T01:21:10;102535.53;;;8.26;59.70
7524;BME280;3803;51.666;7.630;2023-02-04T01:21:31;102541.63;;;8.27;59.67
7524;BME280;3803;51.666;7.630;2023-02-04T01:21:51;102533.75;;;8.25;59.87
7524;BME280;3803;51.666;7.630;2023-02-04T01:22:12;102531.41;;;8.16;59.53
7524;BME280;3803;51.666;7.630;2023-02-04T01:22:33;102550.94;;;8.23;59.95
7524;BME280;3803;51.666;7.630;2023-02-04T01:22:54;102546.63;;;8.23;60.22
7524;BME280;3803;51.666;7.630;2023-02-04T01:23:14;102543.22;;;8.25;60.09
7524;BME280;3803;51.666;7.630;2023-02-04T01:23:35;102536.22;;;8.23;59.94
7524;BME280;3803;51.666;7.630;2023-02-04T01:23:56;102535.53;;;8.26;59.96
7524;BME280;3803;51.666;7.630;2023-02-04T01:24:17;102544.34;;;8.28;59.46
7524;BME280;3803;51.666;7.630;2023-02-04T01:24:56;102542.66;;;8.29;59.83
7524;BME280;3803;51.666;7.630;2023-02-04T01:25:35;102549.94;;;8.34;59.74
7524;BME280;3803;51.666;7.630;2023-02-04T01:25:56;102553.84;;;8.28;59.88
7524;BME280;3803;51.666;7.630;2023-02-04T01:26:17;102552.84;;;8.26;59.57
7524;BME280;3803;51.666;7.630;2023-02-04T01:26:38;102542.25;;;8.22;59.87
7524;BME280;3803;51.666;7.630;2023-02-04T01:26:59;102559.06;;;8.28;59.88
7524;BME280;3803;51.666;7.630;2023-02-04T01:27:20;102537.63;;;8.18;59.61
7524;BME280;3803;51.666;7.630;2023-02-04T01:27:42;102551.84;;;8.23;60.35
7524;BME280;3803;51.666;7.630;2023-02-04T01:28:03;102541.25;;;8.20;60.14
7524;BME280;3803;51.666;7.630;2023-02-04T01:28:24;102550.03;;;8.22;60.08
7524;BME280;3803;51.666;7.630;2023-02-04T01:28:45;102542.03;;;8.19;59.96
7524;BME280;3803;51.666;7.630;2023-02-04T01:29:06;102544.66;;;8.19;59.90
7524;BME280;3803;51.666;7.630;2023-02-04T01:29:27;102542.81;;;8.18;59.87
7524;BME280;3803;51.666;7.630;2023-02-04T01:29:48;102542.31;;;8.11;59.94
7524;BME280;3803;51.666;7.630;2023-02-04T01:30:14;102553.03;;;8.15;60.10
7524;BME280;3803;51.666;7.630;2023-02-04T01:30:34;102542.81;;;8.18;60.32
7524;BME280;3803;51.666;7.630;2023-02-04T01:30:55;102547.94;;;8.17;60.17
7524;BME280;3803;51.666;7.630;2023-02-04T01:31:15;102547.53;;;8.11;59.92
7524;BME280;3803;51.666;7.630;2023-02-04T01:31:36;102545.13;;;8.14;60.27
7524;BME280;3803;51.666;7.630;2023-02-04T01:31:57;102558.03;;;8.12;59.65
7524;BME280;3803;51.666;7.630;2023-02-04T01:32:17;102537.94;;;8.09;59.72
7524;BME280;3803;51.666;7.630;2023-02-04T01:32:38;102544.44;;;8.16;59.98
7524;BME280;3803;51.666;7.630;2023-02-04T01:32:59;102548.03;;;8.18;59.82
7524;BME280;3803;51.666;7.630;2023-02-04T01:33:20;102552.13;;;8.15;60.12
7524;BME280;3803;51.666;7.630;2023-02-04T01:33:41;102547.63;;;8.12;60.19
7524;BME280;3803;51.666;7.630;2023-02-04T01:34:01;102553.03;;;8.15;60.46
7524;BME280;3803;51.666;7.630;2023-02-04T01:34:22;102543.44;;;8.14;60.20
7524;BME280;3803;51.666;7.630;2023-02-04T01:34:45;102553.22;;;8.18;60.08
7524;BME280;3803;51.666;7.630;2023-02-04T01:35:05;102555.94;;;8.20;60.26
7524;BME280;3803;51.666;7.630;2023-02-04T01:35:26;102556.84;;;8.20;60.28
7524;BME280;3803;51.666;7.630;2023-02-04T01:35:47;102560.63;;;8.26;60.22
7524;BME280;3803;51.666;7.630;2023-02-04T01:36:08;102559.75;;;8.25;60.21
7524;BME280;3803;51.666;7.630;2023-02-04T01:36:29;102563.34;;;8.27;60.08
7524;BME280;3803;51.666;7.630;2023-02-04T01:36:50;102569.84;;;8.34;59.83
7524;BME280;3803;51.666;7.630;2023-02-04T01:37:11;102574.34;;;8.36;59.70
7524;BME280;3803;51.666;7.630;2023-02-04T01:37:31;102564.16;;;8.26;59.51
7524;BME280;3803;51.666;7.630;2023-02-04T01:37:52;102568.66;;;8.29;59.64
7524;BME280;3803;51.666;7.630;2023-02-04T01:38:13;102564.44;;;8.31;59.82
7524;BME280;3803;51.666;7.630;2023-02-04T01:38:34;102568.56;;;8.27;59.59
7524;BME280;3803;51.666;7.630;2023-02-04T01:38:55;102569.97;;;8.35;59.73
7524;BME280;3803;51.666;7.630;2023-02-04T01:39:15;102570.66;;;8.33;59.44
7524;BME280;3803;51.666;7.630;2023-02-04T01:39:36;102571.28;;;8.29;60.03
7524;BME280;3803;51.666;7.630;2023-02-04T01:39:57;102560.94;;;8.30;59.64
7524;BME280;3803;51.666;7.630;2023-02-04T01:40:17;102568.97;;;8.33;59.86
7524;BME280;3803;51.666;7.630;2023-02-04T01:40:38;102555.66;;;8.29;59.74
7524;BME280;3803;51.666;7.630;2023-02-04T01:41:00;102562.03;;;8.34;59.79
7524;BME280;3803;51.666;7.630;2023-02-04T01:41:20;102564.56;;;8.32;59.84
7524;BME280;3803;51.666;7.630;2023-02-04T01:41:42;102567.06;;;8.31;59.76
7524;BME280;3803;51.666;7.630;2023-02-04T01:42:17;102564.25;;;8.28;59.94
7524;BME280;3803;51.666;7.630;2023-02-04T01:42:40;102572.16;;;8.29;59.92
7524;BME280;3803;51.666;7.630;2023-02-04T01:43:01;102568.06;;;8.33;59.68
7524;BME280;3803;51.666;7.630;2023-02-04T01:43:24;102569.66;;;8.31;59.66
7524;BME280;3803;51.666;7.630;2023-02-04T01:43:45;102555.25;;;8.22;59.76
7524;BME280;3803;51.666;7.630;2023-02-04T01:44:26;102580.38;;;8.35;59.98
7524;BME280;3803;51.666;7.630;2023-02-04T01:44:47;102576.47;;;8.29;60.10
7524;BME280;3803;51.666;7.630;2023-02-04T01:45:09;102577.47;;;8.31;60.13
7524;BME280;3803;51.666;7.630;2023-02-04T01:45:29;102569.13;;;8.23;60.22
7524;BME280;3803;51.666;7.630;2023-02-04T01:45:53;102579.66;;;8.25;60.36
7524;BME280;3803;51.666;7.630;2023-02-04T01:46:14;102577.34;;;8.29;60.12
7524;BME280;3803;51.666;7.630;2023-02-04T01:46:35;102577.28;;;8.28;59.83
7524;BME280;3803;51.666;7.630;2023-02-04T01:46:56;102580.97;;;8.31;59.87
7524;BME280;3803;51.666;7.630;2023-02-04T01:47:17;102568.06;;;8.19;59.78
7524;BME280;3803;51.666;7.630;2023-02-04T01:47:39;102568.13;;;8.21;60.00
7524;BME280;3803;51.666;7.630;2023-02-04T01:48:02;102580.75;;;8.28;59.93
7524;BME280;3803;51.666;7.630;2023-02-04T01:48:23;102566.34;;;8.20;60.02
7524;BME280;3803;51.666;7.630;2023-02-04T01:48:44;102575.88;;;8.19;59.94
7524;BME280;3803;51.666;7.630;2023-02-04T01:49:05;102574.34;;;8.23;60.01
7524;BME280;3803;51.666;7.630;2023-02-04T01:49:26;102586.88;;;8.29;59.82
7524;BME280;3803;51.666;7.630;2023-02-04T01:49:52;102577.47;;;8.31;59.69
7524;BME280;3803;51.666;7.630;2023-02-04T01:50:15;102572.66;;;8.23;59.83
7524;BME280;3803;51.666;7.630;2023-02-04T01:50:37;102581.88;;;8.32;59.99
7524;BME280;3803;51.666;7.630;2023-02-04T01:51:22;102594.88;;;8.32;60.08
7524;BME280;3803;51.666;7.630;2023-02-04T01:51:46;102586.66;;;8.26;60.18
7524;BME280;3803;51.666;7.630;2023-02-04T01:52:09;102563.25;;;8.12;60.00
7524;BME280;3803;51.666;7.630;2023-02-04T01:52:34;102573.03;;;8.16;59.79
7524;BME280;3803;51.666;7.630;2023-02-04T01:52:56;102565.72;;;8.11;60.04
7524;BME280;3803;51.666;7.630;2023-02-04T01:53:19;102584.44;;;8.18;60.17
7524;BME280;3803;51.666;7.630;2023-02-04T01:53:41;102581.53;;;8.14;60.26
7524;BME280;3803;51.666;7.630;2023-02-04T01:54:03;102575.03;;;8.07;60.35
7524;BME280;3803;51.666;7.630;2023-02-04T01:54:25;102587.41;;;8.11;60.29
7524;BME280;3803;51.666;7.630;2023-02-04T01:54:46;102577.00;;;8.11;60.02
7524;BME280;3803;51.666;7.630;2023-02-04T01:55:33;102580.13;;;8.05;60.70
7524;BME280;3803;51.666;7.630;2023-02-04T01:55:53;102584.00;;;7.99;60.50
7524;BME280;3803;51.666;7.630;2023-02-04T01:56:19;102576.91;;;7.96;60.79
7524;BME280;3803;51.666;7.630;2023-02-04T01:56:44;102584.00;;;7.99;60.56
7524;BME280;3803;51.666;7.630;2023-02-04T01:57:08;102607.72;;;8.03;60.64
7524;BME280;3803;51.666;7.630;2023-02-04T01:57:33;102583.00;;;7.97;60.89
7524;BME280;3803;51.666;7.630;2023-02-04T01:57:54;102594.28;;;7.97;61.14
7524;BME280;3803;51.666;7.630;2023-02-04T01:58:18;102583.59;;;7.92;61.04
7524;BME280;3803;51.666;7.630;2023-02-04T01:58:39;102572.50;;;7.95;60.80